Fairchild AFB, Washington
Current Conditions -  °F | °C
As of 8:12 AM on Thursday 18 Dec 2014 (Local Time) from KSKA Reporting Station
Unknown Precip Unknown Precip  
Wind Chill: 27°   Ceiling: 300
Heat Index: 32°   Visibility: 7mi
Dew Point: 32°   Wind: 5mph
Humidity: 100%   Direction: 210°SSW
Pressure: 29.98"   Gusts: NA
Location:  47.61°N, 117.64°W
Report Text: KSKA 181612Z AUTO 21004KT 7SM UP OVC003 00/00 A2998 RMK AO2 VIS 2 RWY05 UPB07 $
Loading
Personal Weather Stations






























Interactive Weather Map New forecast layout! Learn more

10-Day Weather Forecast

Advertisements
Track Severe Weather on mobile